Time;durP1;ratioP1;P1;durP2;ratioP2;P2;SDS_P1;SDS_P2;PMS_P1;PMS_P2;Temp;Humidity;BMP_temperature;BMP_pressure;BME280_temperature;BME280_humidity;BME280_pressure;Samples;Min_cycle;Max_cycle;Signal;HPM_P1;HPM_P2
2023/10/02 00:00:43;;;;;;;13.57;6.93;;;17.20;54.20;;;;;;5023389;27;114354;-82
2023/10/02 00:03:11;;;;;;;10.82;6.28;;;17.10;54.60;;;;;;5021691;28;115312;-82
2023/10/02 00:05:50;;;;;;;12.25;7.20;;;17.20;54.70;;;;;;5021793;28;114610;-82
2023/10/02 00:14:34;;;;;;;13.57;8.55;;;17.30;54.60;;;;;;5007717;28;115463;-82
2023/10/02 00:17:22;;;;;;;11.98;6.85;;;17.30;54.20;;;;;;5022935;27;114788;-82
2023/10/02 00:19:57;;;;;;;12.35;7.18;;;17.30;54.50;;;;;;5021831;28;114333;-82
2023/10/02 00:22:43;;;;;;;14.05;7.20;;;17.30;54.30;;;;;;4987992;28;114371;-81
2023/10/02 00:25:19;;;;;;;13.48;7.65;;;17.40;54.30;;;;;;5020775;28;114977;-80
2023/10/02 00:27:48;;;;;;;14.30;7.80;;;17.40;54.30;;;;;;5022428;28;114706;-82
2023/10/02 00:30:23;;;;;;;11.93;7.07;;;17.40;54.10;;;;;;5022020;28;114203;-82
2023/10/02 00:32:51;;;;;;;14.35;7.57;;;17.40;54.20;;;;;;5005503;28;114433;-83
2023/10/02 00:35:22;;;;;;;15.90;8.02;;;17.30;54.20;;;;;;5031737;28;115007;-81
2023/10/02 00:37:52;;;;;;;15.73;7.88;;;17.30;54.10;;;;;;5022828;27;114628;-82
2023/10/02 00:40:30;;;;;;;11.70;7.05;;;17.30;54.10;;;;;;5022278;28;114105;-81
2023/10/02 00:42:59;;;;;;;11.63;7.20;;;17.40;54.20;;;;;;5022824;28;114531;-83
2023/10/02 00:45:38;;;;;;;12.45;7.18;;;17.30;54.20;;;;;;5021423;28;114934;-82
2023/10/02 00:50:59;;;;;;;10.88;6.70;;;17.30;54.20;;;;;;5006712;28;114251;-83
2023/10/02 00:53:38;;;;;;;14.85;8.85;;;17.30;54.20;;;;;;5006466;28;114381;-83
2023/10/02 00:56:20;;;;;;;13.93;7.45;;;17.40;54.10;;;;;;4989044;28;115150;-82
2023/10/02 00:58:58;;;;;;;13.57;7.60;;;17.30;54.20;;;;;;4988965;28;117622;-83
2023/10/02 01:01:27;;;;;;;13.93;7.40;;;17.30;54.40;;;;;;5021878;28;114193;-82
2023/10/02 01:04:09;;;;;;;13.43;7.22;;;17.30;54.40;;;;;;5024968;27;114425;-81
2023/10/02 01:10:07;;;;;;;14.50;7.57;;;17.30;54.20;;;;;;4964005;28;114691;-81
2023/10/02 01:12:43;;;;;;;17.50;8.65;;;17.30;54.40;;;;;;4951082;28;114496;-82
2023/10/02 01:15:12;;;;;;;15.35;8.52;;;17.30;54.10;;;;;;4984052;28;114238;-82
2023/10/02 01:17:40;;;;;;;13.80;7.65;;;17.40;54.00;;;;;;5025011;28;115047;-82
2023/10/02 01:20:20;;;;;;;11.10;6.85;;;17.30;54.20;;;;;;4990679;28;116024;-83
2023/10/02 01:22:51;;;;;;;12.88;7.60;;;17.30;54.40;;;;;;5024938;28;114295;-83
2023/10/02 01:25:23;;;;;;;12.52;6.93;;;17.30;54.40;;;;;;5024386;28;114416;-82
2023/10/02 01:27:51;;;;;;;14.50;7.55;;;17.30;54.30;;;;;;5007947;28;115458;-83
2023/10/02 01:30:23;;;;;;;15.88;8.57;;;17.30;54.20;;;;;;5007494;28;115123;-82
2023/10/02 01:33:06;;;;;;;13.68;7.20;;;17.30;54.00;;;;;;5024635;28;114467;-81
2023/10/02 01:35:36;;;;;;;12.77;6.80;;;17.30;54.20;;;;;;5026038;28;114166;-82
2023/10/02 01:38:12;;;;;;;13.75;7.93;;;17.30;54.40;;;;;;5023584;28;115679;-83
2023/10/02 01:40:44;;;;;;;12.80;7.63;;;17.30;54.30;;;;;;5023737;28;114504;-82
2023/10/02 01:43:12;;;;;;;15.40;6.70;;;17.30;54.50;;;;;;5024240;28;114556;-81
2023/10/02 01:45:44;;;;;;;11.80;6.80;;;17.20;54.40;;;;;;4981037;28;114164;-83
2023/10/02 01:48:13;;;;;;;11.77;6.97;;;17.20;54.50;;;;;;4987584;28;115499;-83
2023/10/02 01:50:44;;;;;;;12.00;7.15;;;17.20;54.50;;;;;;5003327;28;115954;-82
2023/10/02 01:53:29;;;;;;;13.27;6.82;;;17.20;54.50;;;;;;4988142;28;114162;-82
2023/10/02 01:56:00;;;;;;;12.52;7.00;;;17.20;54.50;;;;;;5004388;28;114433;-82
2023/10/02 01:58:28;;;;;;;13.80;7.22;;;17.20;54.70;;;;;;5004645;28;114901;-82
2023/10/02 02:00:57;;;;;;;10.57;6.38;;;17.20;54.50;;;;;;5003420;28;114855;-81
2023/10/02 02:03:28;;;;;;;13.32;8.05;;;17.20;54.60;;;;;;5004134;28;114227;-82
2023/10/02 02:05:55;;;;;;;12.90;6.78;;;17.30;54.60;;;;;;4971770;28;114248;-83
2023/10/02 02:08:22;;;;;;;13.05;7.55;;;17.30;54.60;;;;;;4985329;28;117673;-82
2023/10/02 02:10:54;;;;;;;11.73;7.35;;;17.30;54.50;;;;;;5002892;28;114767;-84
2023/10/02 02:13:22;;;;;;;11.70;6.82;;;17.40;54.40;;;;;;4987348;28;114162;-84
2023/10/02 02:16:06;;;;;;;14.98;7.30;;;17.30;54.40;;;;;;4986715;28;114313;-83
2023/10/02 02:18:34;;;;;;;13.57;8.38;;;17.30;54.40;;;;;;5002622;28;114909;-83
2023/10/02 02:21:02;;;;;;;10.45;7.25;;;17.30;54.30;;;;;;5009750;28;115090;-83
2023/10/02 02:23:31;;;;;;;12.30;7.20;;;17.40;54.30;;;;;;5006059;28;114449;-84
2023/10/02 02:25:59;;;;;;;11.32;6.63;;;17.40;54.30;;;;;;5005616;28;114021;-83
2023/10/02 02:28:28;;;;;;;14.68;8.27;;;17.40;54.30;;;;;;5003133;28;114917;-83
2023/10/02 02:30:55;;;;;;;15.15;7.65;;;17.40;54.30;;;;;;4986920;28;114988;-81
2023/10/02 02:33:38;;;;;;;14.07;6.50;;;17.40;54.30;;;;;;5004559;28;114146;-82
2023/10/02 02:36:05;;;;;;;15.98;7.95;;;17.40;54.30;;;;;;4989463;28;114581;-81
2023/10/02 02:38:33;;;;;;;14.68;7.35;;;17.40;54.40;;;;;;4968576;28;116706;-81
2023/10/02 02:41:07;;;;;;;10.30;6.05;;;17.40;54.30;;;;;;5003943;28;114921;-82
2023/10/02 02:43:38;;;;;;;12.10;6.72;;;17.50;54.30;;;;;;5003496;28;114366;-81
2023/10/02 02:46:14;;;;;;;15.38;7.68;;;17.40;54.30;;;;;;5003545;28;114457;-83
2023/10/02 02:48:44;;;;;;;13.70;7.07;;;17.40;54.30;;;;;;5002832;28;115502;-81
2023/10/02 02:51:21;;;;;;;12.60;6.65;;;17.40;54.30;;;;;;5003130;28;114495;-82
2023/10/02 02:53:51;;;;;;;12.25;6.47;;;17.40;54.30;;;;;;5003608;28;114211;-83
2023/10/02 02:56:18;;;;;;;13.25;6.68;;;17.40;54.40;;;;;;5003401;28;114244;-82
2023/10/02 02:58:48;;;;;;;13.43;7.10;;;17.40;54.30;;;;;;5003108;28;114832;-82
2023/10/02 03:01:29;;;;;;;16.52;7.90;;;17.50;54.00;;;;;;5002270;28;116186;-82
2023/10/02 03:03:58;;;;;;;13.02;7.75;;;17.30;54.20;;;;;;4974011;28;114429;-81
2023/10/02 03:06:27;;;;;;;11.57;6.70;;;17.30;54.40;;;;;;5004271;28;114575;-81
2023/10/02 03:08:57;;;;;;;10.23;6.45;;;17.30;54.50;;;;;;5003259;28;115473;-82
2023/10/02 03:11:28;;;;;;;10.93;6.43;;;17.20;54.50;;;;;;5003120;28;114599;-81
2023/10/02 03:14:16;;;;;;;10.73;6.10;;;17.30;54.60;;;;;;5003955;28;114125;-81
2023/10/02 03:16:46;;;;;;;12.32;6.38;;;17.30;54.60;;;;;;5004210;28;114224;-82
2023/10/02 03:19:16;;;;;;;11.38;7.20;;;17.30;54.60;;;;;;5001683;28;115553;-81
2023/10/02 03:21:43;;;;;;;10.07;5.88;;;17.30;54.50;;;;;;5003519;28;114831;-82
2023/10/02 03:24:12;;;;;;;9.40;5.80;;;17.30;54.50;;;;;;5002388;28;114273;-82
2023/10/02 03:26:43;;;;;;;11.50;6.60;;;17.40;54.40;;;;;;5001229;28;114843;-82
2023/10/02 03:29:21;;;;;;;11.07;6.20;;;17.40;54.30;;;;;;5002394;28;115177;-82
2023/10/02 03:31:49;;;;;;;13.70;6.20;;;17.40;54.30;;;;;;5003155;28;114650;-82
2023/10/02 03:34:29;;;;;;;13.07;6.47;;;17.40;54.30;;;;;;5003678;28;114420;-81
2023/10/02 03:37:12;;;;;;;11.63;6.57;;;17.50;54.30;;;;;;4971056;28;114415;-82
2023/10/02 03:39:59;;;;;;;11.30;6.63;;;17.50;54.30;;;;;;5000959;28;116108;-81
2023/10/02 03:42:31;;;;;;;13.00;6.50;;;17.40;54.30;;;;;;5003286;28;114748;-82
2023/10/02 03:45:00;;;;;;;11.82;6.50;;;17.40;54.30;;;;;;5003607;28;114113;-82
2023/10/02 03:47:30;;;;;;;10.93;7.30;;;17.40;54.40;;;;;;5002566;28;114080;-82
2023/10/02 03:50:00;;;;;;;11.95;7.13;;;17.40;54.20;;;;;;5001167;28;115112;-81
2023/10/02 03:52:33;;;;;;;12.43;6.55;;;17.40;54.30;;;;;;5002885;28;114780;-82
2023/10/02 03:55:26;;;;;;;10.88;6.78;;;17.30;54.40;;;;;;4986409;28;114166;-81
2023/10/02 03:57:52;;;;;;;12.23;6.05;;;17.30;54.60;;;;;;5002279;28;114347;-82
2023/10/02 04:00:27;;;;;;;10.88;6.25;;;17.20;54.60;;;;;;5002340;28;117522;-82
2023/10/02 04:02:56;;;;;;;10.27;5.68;;;17.20;54.40;;;;;;5001949;28;114233;-83
2023/10/02 04:05:32;;;;;;;11.50;5.78;;;17.20;54.70;;;;;;5005030;28;114213;-82
2023/10/02 04:10:51;;;;;;;10.75;6.15;;;17.30;54.50;;;;;;5001703;28;114911;-81
2023/10/02 04:13:23;;;;;;;10.80;6.65;;;17.30;54.70;;;;;;4985437;28;115274;-82
2023/10/02 04:15:53;;;;;;;10.30;6.63;;;17.30;54.50;;;;;;5003076;28;114144;-82
2023/10/02 04:21:12;;;;;;;10.15;5.97;;;17.30;54.60;;;;;;5001721;28;115141;-81
2023/10/02 04:23:42;;;;;;;9.35;5.82;;;17.30;54.50;;;;;;5001792;28;114713;-82
2023/10/02 04:26:19;;;;;;;9.82;6.45;;;17.30;54.50;;;;;;5003527;28;114540;-82
2023/10/02 04:28:55;;;;;;;11.85;6.93;;;17.30;54.50;;;;;;5002329;28;114240;-83
2023/10/02 04:31:34;;;;;;;12.38;5.95;;;17.30;54.40;;;;;;4968733;28;116950;-82
2023/10/02 04:36:47;;;;;;;10.20;5.95;;;17.20;54.40;;;;;;5003429;28;114142;-82
2023/10/02 04:42:12;;;;;;;10.43;6.25;;;17.20;54.60;;;;;;5004341;28;118563;-81
2023/10/02 04:44:47;;;;;;;11.40;6.00;;;17.20;54.50;;;;;;5005092;28;114714;-82
2023/10/02 04:47:19;;;;;;;10.13;5.85;;;17.20;54.60;;;;;;5006884;28;114252;-82
2023/10/02 04:52:57;;;;;;;9.25;6.53;;;17.20;54.50;;;;;;5005554;28;116665;-82
2023/10/02 04:55:41;;;;;;;9.93;6.18;;;17.30;54.70;;;;;;5004920;28;114585;-81
2023/10/02 04:58:14;;;;;;;9.95;5.82;;;17.30;54.60;;;;;;5006238;28;114003;-83
2023/10/02 05:03:36;;;;;;;10.57;6.05;;;17.30;54.60;;;;;;4992831;28;116822;-83
2023/10/02 05:06:04;;;;;;;11.15;6.38;;;17.30;54.60;;;;;;5005744;28;114648;-82
2023/10/02 05:09:12;;;;;;;10.95;5.78;;;17.30;54.50;;;;;;5005772;28;114020;-81
2023/10/02 05:14:15;;;;;;;10.38;5.78;;;17.40;54.50;;;;;;4990053;28;115037;-82
2023/10/02 05:16:46;;;;;;;10.57;5.85;;;17.30;54.50;;;;;;5003829;28;114555;-82
2023/10/02 05:19:15;;;;;;;11.20;5.72;;;17.40;54.50;;;;;;5018360;28;114804;-82
2023/10/02 05:21:51;;;;;;;12.77;6.70;;;17.40;54.40;;;;;;5025982;28;113994;-82
2023/10/02 05:24:18;;;;;;;15.98;6.55;;;17.40;54.40;;;;;;5008922;28;114995;-82
2023/10/02 05:26:46;;;;;;;10.45;6.10;;;17.40;54.20;;;;;;5007992;28;114706;-81
2023/10/02 05:29:17;;;;;;;12.32;6.80;;;17.40;54.40;;;;;;5026143;28;113985;-81
2023/10/02 05:31:45;;;;;;;11.23;6.22;;;17.40;54.30;;;;;;5008447;28;114056;-82
2023/10/02 05:34:16;;;;;;;11.07;6.13;;;17.40;54.40;;;;;;5024810;28;115019;-82
2023/10/02 05:39:39;;;;;;;9.95;5.90;;;17.40;54.50;;;;;;5010611;28;114282;-82
2023/10/02 05:42:16;;;;;;;11.77;6.88;;;17.40;54.40;;;;;;5009231;28;114558;-81
2023/10/02 05:44:43;;;;;;;9.80;5.50;;;17.30;54.60;;;;;;5025122;28;114921;-81
2023/10/02 05:47:15;;;;;;;13.60;6.25;;;17.30;54.50;;;;;;5007210;28;115111;-83
2023/10/02 05:49:47;;;;;;;12.70;6.43;;;17.40;54.60;;;;;;5007141;28;114264;-82
2023/10/02 05:52:19;;;;;;;13.68;6.70;;;17.50;54.50;;;;;;4977663;28;114458;-82
2023/10/02 05:54:47;;;;;;;13.23;6.72;;;17.50;54.50;;;;;;5026511;28;114890;-82
2023/10/02 05:57:16;;;;;;;10.40;5.60;;;17.40;54.60;;;;;;5024998;28;115060;-82
2023/10/02 05:59:45;;;;;;;10.95;6.18;;;17.40;54.50;;;;;;4990701;28;114357;-81
2023/10/02 06:02:20;;;;;;;12.32;5.95;;;17.40;54.50;;;;;;4990951;28;114206;-82
2023/10/02 06:04:48;;;;;;;11.98;6.28;;;17.40;54.50;;;;;;5006411;28;116956;-83
2023/10/02 06:10:09;;;;;;;11.82;6.32;;;17.30;54.80;;;;;;4996056;28;114323;-81
2023/10/02 06:12:42;;;;;;;11.70;5.88;;;17.10;55.00;;;;;;5007793;28;114176;-83
2023/10/02 06:15:43;;;;;;;9.20;5.50;;;17.20;54.90;;;;;;5005337;28;118647;-81
2023/10/02 06:17:58;;;;;;;10.98;5.88;;;17.20;54.90;;;;;;5006060;28;115751;-82
2023/10/02 06:20:26;;;;;;;9.82;5.55;;;17.20;54.90;;;;;;5025237;28;114213;-82
2023/10/02 06:23:05;;;;;;;10.18;4.75;;;17.30;54.90;;;;;;5006660;28;114164;-82
2023/10/02 06:25:32;;;;;;;8.18;4.80;;;17.30;54.50;;;;;;5023693;28;115126;-83
2023/10/02 06:28:19;;;;;;;9.68;5.07;;;17.30;54.50;;;;;;5023837;28;116172;-82
2023/10/02 06:30:49;;;;;;;9.25;5.60;;;17.30;54.50;;;;;;5024888;28;114229;-82
2023/10/02 06:33:21;;;;;;;10.93;5.28;;;17.30;54.70;;;;;;5025338;28;114154;-82
2023/10/02 06:36:00;;;;;;;10.40;5.38;;;17.30;54.60;;;;;;5007198;28;115242;-83
2023/10/02 06:38:29;;;;;;;7.60;5.15;;;17.40;54.50;;;;;;5023966;28;114785;-82
2023/10/02 06:40:59;;;;;;;9.82;5.22;;;17.40;54.30;;;;;;5006919;28;114573;-82
2023/10/02 06:43:30;;;;;;;9.40;5.43;;;17.50;54.20;;;;;;5007339;28;114357;-81
2023/10/02 06:46:13;;;;;;;8.55;4.95;;;17.50;54.20;;;;;;5006475;28;114890;-84
2023/10/02 06:48:43;;;;;;;10.87;5.70;;;17.60;54.10;;;;;;5023823;28;114622;-82
2023/10/02 06:51:14;;;;;;;10.95;5.57;;;17.50;54.20;;;;;;5024056;28;114080;-83
2023/10/02 06:53:43;;;;;;;9.75;5.50;;;17.50;54.30;;;;;;5024751;28;114138;-82
2023/10/02 06:56:11;;;;;;;9.57;5.25;;;17.50;54.40;;;;;;4973020;28;115646;-82
2023/10/02 06:58:50;;;;;;;11.65;5.55;;;17.60;54.30;;;;;;5022551;28;115333;-81
2023/10/02 07:01:26;;;;;;;8.85;5.13;;;17.50;54.30;;;;;;5007599;28;114197;-81
2023/10/02 07:03:56;;;;;;;12.20;4.60;;;17.50;54.20;;;;;;4988999;28;114459;-83
2023/10/02 07:06:24;;;;;;;9.93;5.60;;;17.50;54.20;;;;;;5023655;28;114978;-80
2023/10/02 07:09:10;;;;;;;10.27;6.32;;;17.40;54.30;;;;;;4989627;28;114632;-81
2023/10/02 07:11:45;;;;;;;9.73;5.97;;;17.50;54.40;;;;;;5008973;28;114640;-82
2023/10/02 07:14:12;;;;;;;11.20;6.32;;;17.50;54.40;;;;;;5006407;28;114434;-81
2023/10/02 07:16:41;;;;;;;9.80;5.55;;;17.50;54.40;;;;;;5022502;28;116183;-82
2023/10/02 07:19:10;;;;;;;12.65;6.80;;;17.60;54.40;;;;;;4989195;28;114604;-83
2023/10/02 07:21:40;;;;;;;13.48;7.28;;;17.70;54.30;;;;;;5006154;28;114634;-82
2023/10/02 07:24:25;;;;;;;11.30;6.28;;;17.70;54.20;;;;;;5024207;28;115886;-81
2023/10/02 07:26:53;;;;;;;10.88;7.50;;;17.80;54.00;;;;;;5023168;28;114997;-83
2023/10/02 07:29:37;;;;;;;11.73;6.07;;;17.70;54.00;;;;;;5023164;28;114598;-82
2023/10/02 07:32:06;;;;;;;15.75;7.13;;;17.70;54.00;;;;;;4991099;28;114505;-84
2023/10/02 07:34:38;;;;;;;11.88;6.50;;;17.60;54.00;;;;;;4989794;28;114266;-80
2023/10/02 07:37:06;;;;;;;10.07;5.50;;;17.50;54.30;;;;;;5023321;28;114957;-81
2023/10/02 07:39:37;;;;;;;12.20;5.45;;;17.40;54.50;;;;;;5028709;28;114671;-82
2023/10/02 07:42:05;;;;;;;11.32;6.47;;;17.30;54.60;;;;;;5005679;28;114595;-82
2023/10/02 07:44:37;;;;;;;10.73;6.15;;;17.30;54.90;;;;;;5006976;28;114347;-81
2023/10/02 07:47:16;;;;;;;12.38;6.50;;;17.30;55.00;;;;;;5005524;28;115381;-80
2023/10/02 07:49:48;;;;;;;10.45;5.72;;;17.40;55.00;;;;;;4990116;28;114606;-82
2023/10/02 07:52:35;;;;;;;11.15;6.10;;;17.30;55.10;;;;;;5005834;28;114098;-81
2023/10/02 07:55:10;;;;;;;13.27;7.82;;;17.40;55.10;;;;;;5008872;28;114391;-81
2023/10/02 07:57:38;;;;;;;13.77;8.18;;;17.30;55.10;;;;;;5023061;28;114971;-82
2023/10/02 08:00:33;;;;;;;14.32;7.68;;;17.40;55.10;;;;;;5005458;28;114619;-82
2023/10/02 08:02:53;;;;;;;14.35;8.80;;;17.50;55.00;;;;;;4977747;28;114683;-83
2023/10/02 08:05:21;;;;;;;16.85;7.25;;;17.50;54.80;;;;;;4988679;28;114232;-83
2023/10/02 08:08:07;;;;;;;14.52;7.68;;;17.60;55.20;;;;;;4954734;28;118456;-82
2023/10/02 08:10:50;;;;;;;12.82;8.50;;;17.60;55.00;;;;;;5022435;28;116133;-82
2023/10/02 08:13:18;;;;;;;11.15;7.38;;;17.60;54.80;;;;;;5007292;28;114574;-84
2023/10/02 08:15:45;;;;;;;15.60;8.30;;;17.60;55.20;;;;;;5009360;28;114075;-83
2023/10/02 08:18:18;;;;;;;14.88;9.45;;;17.70;55.10;;;;;;5008082;28;115029;-82
2023/10/02 08:20:45;;;;;;;13.13;8.13;;;17.70;55.00;;;;;;5009033;28;115109;-82
2023/10/02 08:23:21;;;;;;;13.68;8.10;;;17.70;55.30;;;;;;5026721;28;114377;-83
2023/10/02 08:26:00;;;;;;;14.40;8.13;;;17.70;55.10;;;;;;5027185;28;114160;-84
2023/10/02 08:28:52;;;;;;;13.45;9.25;;;17.80;55.20;;;;;;4999609;28;114756;-82
2023/10/02 08:31:20;;;;;;;14.75;6.38;;;17.70;54.70;;;;;;5008771;28;114789;-82
2023/10/02 08:33:48;;;;;;;13.23;6.68;;;17.80;55.30;;;;;;5008221;28;114361;-82
2023/10/02 08:36:28;;;;;;;11.80;6.25;;;17.70;55.30;;;;;;4993624;28;114666;-82
2023/10/02 08:38:56;;;;;;;12.75;6.72;;;17.70;55.80;;;;;;5025883;28;115428;-82
2023/10/02 08:41:44;;;;;;;11.15;7.03;;;17.70;55.70;;;;;;5025848;28;114161;-81
2023/10/02 08:44:14;;;;;;;12.90;7.72;;;17.70;55.50;;;;;;5008124;28;114242;-81
2023/10/02 08:46:45;;;;;;;11.32;7.47;;;17.70;55.70;;;;;;5026563;28;114229;-82
2023/10/02 08:49:12;;;;;;;9.15;5.55;;;17.80;55.20;;;;;;5025806;28;114907;-81
2023/10/02 08:51:48;;;;;;;10.75;6.93;;;17.80;55.60;;;;;;5026144;28;114608;-82
2023/10/02 08:54:17;;;;;;;12.40;6.35;;;17.90;55.30;;;;;;4978151;28;114334;-81
2023/10/02 08:56:46;;;;;;;12.23;6.03;;;17.90;55.60;;;;;;5026532;28;114226;-82
2023/10/02 08:59:35;;;;;;;10.75;5.60;;;18.00;55.70;;;;;;5007450;28;115136;-82
2023/10/02 09:02:16;;;;;;;11.48;6.13;;;18.10;55.20;;;;;;5025249;28;114761;-81
2023/10/02 09:04:53;;;;;;;15.10;6.00;;;18.00;55.20;;;;;;5026361;28;114023;-81
2023/10/02 09:07:22;;;;;;;14.35;6.22;;;18.10;55.30;;;;;;5008192;28;114271;-82
2023/10/02 09:10:04;;;;;;;9.60;5.50;;;18.00;55.40;;;;;;5007520;28;115043;-81
2023/10/02 09:12:31;;;;;;;9.55;5.35;;;18.00;55.40;;;;;;4991266;28;115478;-83
2023/10/02 09:15:24;;;;;;;10.52;4.97;;;17.90;55.60;;;;;;5008072;28;114527;-82
2023/10/02 09:17:58;;;;;;;13.13;5.88;;;18.00;55.80;;;;;;5008146;28;114251;-82
2023/10/02 09:20:38;;;;;;;11.40;5.72;;;18.00;55.50;;;;;;5007130;28;118205;-83
2023/10/02 09:23:09;;;;;;;9.15;4.82;;;18.10;55.50;;;;;;5025313;28;114597;-82
2023/10/02 09:25:40;;;;;;;10.35;5.72;;;18.10;55.60;;;;;;5026221;28;114335;-81
2023/10/02 09:28:13;;;;;;;10.43;6.22;;;18.20;55.80;;;;;;5026038;28;114139;-82
2023/10/02 09:30:45;;;;;;;12.17;5.57;;;18.30;55.40;;;;;;5023931;28;115111;-82
2023/10/02 09:33:37;;;;;;;13.45;6.85;;;18.50;55.00;;;;;;5008257;28;115147;-81
2023/10/02 09:36:34;;;;;;;11.23;6.10;;;18.70;54.30;;;;;;5007105;28;114373;-82
2023/10/02 09:39:38;;;;;;;11.60;6.32;;;18.80;54.70;;;;;;5012387;28;114756;-81
2023/10/02 09:42:07;;;;;;;;;;;18.90;54.10;;;;;;5025208;28;115008;-81
2023/10/02 09:44:42;;;;;;;12.02;5.75;;;18.80;54.20;;;;;;5007440;28;116390;-81
2023/10/02 09:47:10;;;;;;;12.50;5.57;;;18.90;54.50;;;;;;5008104;28;114227;-82
2023/10/02 09:49:44;;;;;;;11.63;6.25;;;19.00;54.10;;;;;;5025911;28;114049;-81
2023/10/02 09:52:16;;;;;;;12.00;6.03;;;19.20;53.40;;;;;;5007243;28;115170;-81
2023/10/02 09:55:00;;;;;;;13.05;5.63;;;19.20;53.30;;;;;;4974637;28;114820;-82
2023/10/02 09:57:31;;;;;;;11.80;6.35;;;19.30;53.20;;;;;;5008615;28;114175;-83
2023/10/02 09:59:59;;;;;;;12.05;6.30;;;19.40;53.30;;;;;;4958917;28;114271;-82
2023/10/02 10:05:22;;;;;;;11.77;6.20;;;19.70;53.10;;;;;;5006094;28;117782;-83
2023/10/02 10:07:58;;;;;;;12.73;6.30;;;19.90;53.00;;;;;;5025115;28;114331;-83
2023/10/02 10:10:52;;;;;;;11.20;5.88;;;19.90;52.40;;;;;;5025754;28;114256;-83
2023/10/02 10:13:37;;;;;;;13.80;6.95;;;20.00;52.60;;;;;;5024080;28;115489;-83
2023/10/02 10:16:19;;;;;;;15.07;6.90;;;20.10;52.50;;;;;;5024383;28;114602;-83
2023/10/02 10:19:43;;;;;;;12.00;6.00;;;20.30;51.90;;;;;;5023906;28;114106;-83
2023/10/02 10:22:00;;;;;;;9.07;5.30;;;20.30;52.20;;;;;;5014672;28;114607;-83
2023/10/02 10:24:57;;;;;;;10.55;5.45;;;20.50;52.30;;;;;;5008049;28;115481;-83
2023/10/02 10:27:39;;;;;;;11.55;5.57;;;20.60;51.20;;;;;;5008663;28;114778;-83
2023/10/02 10:30:28;;;;;;;9.48;5.00;;;20.70;51.40;;;;;;5007027;28;114357;-81
2023/10/02 10:35:57;;;;;;;7.10;3.60;;;20.80;50.90;;;;;;5023442;27;115123;-81
2023/10/02 10:38:36;;;;;;;5.78;2.78;;;20.80;50.90;;;;;;5007881;28;114740;-82
2023/10/02 10:41:06;;;;;;;6.93;3.47;;;20.90;50.50;;;;;;5024735;28;113977;-82
2023/10/02 10:46:29;;;;;;;8.40;3.58;;;21.00;49.90;;;;;;5005309;28;115386;-83
2023/10/02 10:48:59;;;;;;;6.53;3.20;;;21.10;49.90;;;;;;5007389;28;114695;-83
2023/10/02 10:51:28;;;;;;;8.95;3.17;;;21.20;49.90;;;;;;5024470;28;114020;-82
2023/10/02 10:54:19;;;;;;;5.95;2.20;;;21.20;49.60;;;;;;5024498;28;114263;-83
2023/10/02 10:57:27;;;;;;;4.70;2.40;;;21.30;49.00;;;;;;4995577;28;114909;-83
2023/10/02 11:03:08;;;;;;;7.32;3.20;;;21.30;49.30;;;;;;4992443;28;114349;-82
2023/10/02 11:05:37;;;;;;;6.53;2.75;;;21.30;49.30;;;;;;5008409;28;114484;-82
2023/10/02 11:08:23;;;;;;;4.93;2.47;;;21.30;49.00;;;;;;4989492;28;114992;-82
2023/10/02 11:11:19;;;;;;;16.67;8.40;;;21.30;48.30;;;;;;5008946;28;114586;-81
2023/10/02 11:13:50;;;;;;;9.85;5.82;;;21.30;49.40;;;;;;5018490;28;114041;-82
2023/10/02 11:16:36;;;;;;;7.15;4.05;;;21.30;49.40;;;;;;4991843;28;114471;-83
2023/10/02 11:19:13;;;;;;;7.80;4.90;;;21.40;49.30;;;;;;5022922;28;114939;-82
2023/10/02 11:22:14;;;;;;;10.07;5.32;;;21.40;49.30;;;;;;5005106;28;117265;-81
2023/10/02 11:24:55;;;;;;;5.70;3.17;;;21.40;48.90;;;;;;4990992;28;114540;-83
2023/10/02 11:27:23;;;;;;;5.80;2.92;;;21.50;48.60;;;;;;5006105;28;114358;-81
2023/10/02 11:30:03;;;;;;;5.88;2.40;;;21.50;48.70;;;;;;5005791;28;115075;-82
2023/10/02 11:33:08;;;;;;;6.25;3.00;;;21.60;48.40;;;;;;5007878;28;116260;-82
2023/10/02 11:35:38;;;;;;;6.15;3.20;;;21.60;48.60;;;;;;5024023;28;114303;-81
2023/10/02 11:38:09;;;;;;;5.72;2.60;;;21.60;48.70;;;;;;5023704;28;114243;-82
2023/10/02 11:40:38;;;;;;;5.30;3.10;;;21.70;48.50;;;;;;5004648;28;114949;-82
2023/10/02 11:43:05;;;;;;;6.65;2.60;;;21.70;48.30;;;;;;5022984;28;114784;-82
2023/10/02 11:45:33;;;;;;;5.57;3.35;;;21.70;48.10;;;;;;4972183;28;114224;-82
2023/10/02 11:48:01;;;;;;;7.45;2.80;;;21.80;48.40;;;;;;4988756;28;114456;-82
2023/10/02 11:50:29;;;;;;;6.97;2.47;;;21.80;48.40;;;;;;5023080;28;115441;-81
2023/10/02 11:52:56;;;;;;;5.63;2.92;;;21.80;48.10;;;;;;4988541;28;114701;-83
2023/10/02 11:55:24;;;;;;;6.65;3.22;;;21.90;47.80;;;;;;5023695;28;114190;-83
2023/10/02 11:57:51;;;;;;;7.18;3.50;;;21.80;47.90;;;;;;4989380;28;114318;-84
2023/10/02 12:00:23;;;;;;;6.22;3.17;;;21.90;48.30;;;;;;5004294;28;117767;-83
2023/10/02 12:02:51;;;;;;;6.45;4.13;;;21.90;47.90;;;;;;4989264;28;115120;-81
2023/10/02 12:05:18;;;;;;;6.95;3.47;;;21.90;48.20;;;;;;5022849;28;114165;-82
2023/10/02 12:07:46;;;;;;;9.32;5.18;;;22.00;48.10;;;;;;5005505;28;114317;-83
2023/10/02 12:10:16;;;;;;;4.30;2.63;;;22.00;48.30;;;;;;5022669;28;114956;-83
2023/10/02 12:12:45;;;;;;;14.18;9.27;;;22.00;48.30;;;;;;5022730;28;115419;-82
2023/10/02 12:15:14;;;;;;;7.32;3.67;;;22.00;48.40;;;;;;5005832;28;114218;-83
2023/10/02 12:17:42;;;;;;;3.95;2.10;;;22.00;47.50;;;;;;5005302;28;114086;-83
2023/10/02 12:20:12;;;;;;;7.72;3.40;;;22.00;47.70;;;;;;5022647;28;114980;-83
2023/10/02 12:22:46;;;;;;;4.28;2.55;;;22.00;47.90;;;;;;5022943;28;114427;-83
2023/10/02 12:25:14;;;;;;;5.43;2.50;;;21.90;48.20;;;;;;5022935;28;114000;-82
2023/10/02 12:27:41;;;;;;;3.85;2.05;;;21.90;48.40;;;;;;5005534;28;114373;-82
2023/10/02 12:30:11;;;;;;;5.00;2.50;;;21.90;48.20;;;;;;5004197;28;115317;-82
2023/10/02 12:32:41;;;;;;;5.07;2.35;;;21.90;48.60;;;;;;4987645;28;114772;-82
2023/10/02 12:35:09;;;;;;;4.93;2.15;;;22.00;48.20;;;;;;4988449;28;114240;-82
2023/10/02 12:37:36;;;;;;;4.20;2.10;;;21.90;48.30;;;;;;5023173;28;114274;-83
2023/10/02 12:40:11;;;;;;;7.03;3.22;;;22.00;48.10;;;;;;5021911;28;115501;-81
2023/10/02 12:42:39;;;;;;;4.57;2.30;;;22.00;48.20;;;;;;4988835;28;116585;-82
2023/10/02 12:45:06;;;;;;;4.28;2.65;;;21.90;48.40;;;;;;5022810;28;114068;-81
2023/10/02 12:47:36;;;;;;;4.55;2.10;;;21.90;48.20;;;;;;5023303;28;114112;-82
2023/10/02 12:50:10;;;;;;;6.85;4.28;;;21.90;48.50;;;;;;5004068;28;114918;-82
2023/10/02 12:52:38;;;;;;;4.53;2.53;;;21.90;48.80;;;;;;5005217;28;115196;-82
2023/10/02 12:55:06;;;;;;;4.60;2.42;;;21.90;48.80;;;;;;5004538;28;114037;-83
2023/10/02 12:57:36;;;;;;;4.68;2.00;;;21.90;48.70;;;;;;5005057;28;114356;-83
2023/10/02 13:00:16;;;;;;;5.00;2.58;;;21.90;48.60;;;;;;5008827;28;117802;-81
2023/10/02 13:02:45;;;;;;;6.15;2.35;;;21.90;48.50;;;;;;5019891;28;114602;-81
2023/10/02 13:05:12;;;;;;;3.92;2.00;;;21.90;48.40;;;;;;5026953;28;114178;-83
2023/10/02 13:07:41;;;;;;;6.15;3.03;;;22.00;48.40;;;;;;4992147;28;114438;-81
2023/10/02 13:10:08;;;;;;;4.97;2.28;;;21.90;48.70;;;;;;5007875;28;115371;-82
2023/10/02 13:12:36;;;;;;;6.30;2.80;;;21.90;48.70;;;;;;5025770;28;114780;-82
2023/10/02 13:15:03;;;;;;;5.00;2.97;;;22.00;48.70;;;;;;5026248;28;114289;-82
2023/10/02 13:17:31;;;;;;;4.57;2.97;;;22.00;48.70;;;;;;5026441;28;114418;-82
2023/10/02 13:19:59;;;;;;;4.93;2.47;;;22.00;48.80;;;;;;5003363;28;114868;-82
2023/10/02 13:22:26;;;;;;;4.72;2.53;;;22.00;48.60;;;;;;4987869;28;114715;-81
2023/10/02 13:24:57;;;;;;;5.10;2.47;;;22.10;48.10;;;;;;5004746;28;114351;-81
2023/10/02 13:27:25;;;;;;;5.72;2.63;;;22.00;48.00;;;;;;5005998;28;114159;-83
2023/10/02 13:29:55;;;;;;;5.03;3.67;;;22.00;48.30;;;;;;5004996;28;114949;-81
2023/10/02 13:32:23;;;;;;;4.80;2.90;;;22.00;48.50;;;;;;5003710;28;114712;-81
2023/10/02 13:34:51;;;;;;;4.25;2.00;;;22.00;48.40;;;;;;5005797;28;114313;-82
2023/10/02 13:37:19;;;;;;;4.63;2.53;;;22.00;48.40;;;;;;5006197;28;114155;-82
2023/10/02 13:39:47;;;;;;;5.75;2.45;;;22.00;48.70;;;;;;5004818;28;115243;-83
2023/10/02 13:42:17;;;;;;;4.07;2.15;;;22.00;48.80;;;;;;5004896;28;115092;-81
2023/10/02 13:44:45;;;;;;;4.57;2.40;;;22.00;48.70;;;;;;5003532;28;114533;-82
2023/10/02 13:47:12;;;;;;;4.80;2.20;;;22.00;48.50;;;;;;5004149;28;114506;-81
2023/10/02 13:49:57;;;;;;;;;;;21.90;48.30;;;;;;5004084;28;114855;-81
2023/10/02 13:52:25;;;;;;;4.30;2.70;;;21.80;48.70;;;;;;5003780;28;114591;-82